Time;durP1;ratioP1;P1;durP2;ratioP2;P2;SDS_P1;SDS_P2;PMS_P1;PMS_P2;Temp;Humidity;BMP_temperature;BMP_pressure;BME280_temperature;BME280_humidity;BME280_pressure;Samples;Min_cycle;Max_cycle;Signal;HPM_P1;HPM_P2
2023/04/15 00:02:17;;;;;;;5.17;3.80;;;8.30;66.70;;;;;;5081921;28;20175;-90
2023/04/15 00:04:43;;;;;;;4.13;3.73;;;8.30;67.00;;;;;;5102300;28;20199;-88
2023/04/15 00:07:09;;;;;;;5.47;3.53;;;8.50;66.20;;;;;;5088109;28;20182;-87
2023/04/15 00:09:35;;;;;;;4.13;3.73;;;8.50;66.00;;;;;;5100465;28;20262;-88
2023/04/15 00:12:01;;;;;;;4.00;3.60;;;8.50;66.00;;;;;;5100544;28;20175;-90
2023/04/15 00:14:27;;;;;;;3.87;3.47;;;8.50;66.00;;;;;;5100130;28;20597;-88
2023/04/15 00:16:55;;;;;;;3.00;2.77;;;8.60;66.00;;;;;;5099328;28;20561;-88
2023/04/15 00:19:21;;;;;;;3.60;3.30;;;8.40;66.40;;;;;;5101604;28;20214;-89
2023/04/15 00:21:46;;;;;;;3.37;3.07;;;8.40;66.70;;;;;;5099584;28;20243;-90
2023/04/15 00:24:12;;;;;;;3.47;3.17;;;8.40;66.90;;;;;;5099780;28;20750;-88
2023/04/15 00:26:38;;;;;;;4.83;3.13;;;8.20;67.20;;;;;;5098038;28;20175;-86
2023/04/15 00:29:04;;;;;;;3.60;2.90;;;8.00;68.70;;;;;;5098257;28;20263;-86
2023/04/15 00:31:30;;;;;;;4.27;3.30;;;7.90;69.40;;;;;;5083001;28;20186;-88
2023/04/15 00:33:57;;;;;;;4.53;3.63;;;7.70;70.00;;;;;;5098640;28;20175;-88
2023/04/15 00:36:23;;;;;;;4.90;3.37;;;7.70;71.20;;;;;;5099157;28;20236;-88
2023/04/15 00:38:49;;;;;;;4.00;3.60;;;7.90;70.90;;;;;;5099607;28;20202;-88
2023/04/15 00:41:14;;;;;;;3.50;3.17;;;7.90;69.50;;;;;;5101996;28;20183;-90
2023/04/15 00:43:40;;;;;;;3.80;3.50;;;7.80;69.80;;;;;;5105449;28;20189;-86
2023/04/15 00:46:06;;;;;;;4.83;3.30;;;7.70;70.20;;;;;;5086731;28;20457;-89
2023/04/15 00:48:32;;;;;;;5.93;3.53;;;7.70;70.10;;;;;;5086860;28;20263;-87
2023/04/15 00:50:58;;;;;;;3.87;3.43;;;7.60;70.50;;;;;;5105135;28;20198;-89
2023/04/15 00:53:24;;;;;;;3.77;3.47;;;7.70;70.90;;;;;;5103202;28;20526;-88
2023/04/15 00:55:50;;;;;;;3.83;3.40;;;7.60;70.70;;;;;;5099692;28;20183;-88
2023/04/15 00:58:16;;;;;;;5.47;3.63;;;7.50;71.90;;;;;;5098287;28;20271;-88
2023/04/15 01:00:42;;;;;;;5.27;3.03;;;7.50;71.90;;;;;;5098861;28;20187;-87
2023/04/15 01:03:08;;;;;;;4.60;3.70;;;7.50;72.40;;;;;;5100006;28;20715;-88
2023/04/15 01:05:35;;;;;;;4.33;3.73;;;7.50;72.50;;;;;;5098767;28;20249;-90
2023/04/15 01:08:02;;;;;;;4.47;3.93;;;7.30;73.60;;;;;;5099502;28;20239;-87
2023/04/15 01:10:28;;;;;;;4.00;3.53;;;7.30;73.80;;;;;;5099425;28;20175;-87
2023/04/15 01:12:54;;;;;;;3.90;3.40;;;7.40;73.50;;;;;;5100819;28;20274;-88
2023/04/15 01:15:20;;;;;;;4.23;3.57;;;7.30;73.60;;;;;;5099606;28;20590;-88
2023/04/15 01:17:46;;;;;;;3.80;3.37;;;7.30;73.40;;;;;;5098629;28;20197;-88
2023/04/15 01:20:14;;;;;;;5.73;3.80;;;7.40;72.50;;;;;;5082046;28;20299;-88
2023/04/15 01:22:40;;;;;;;4.27;3.50;;;7.40;72.30;;;;;;5100307;28;20257;-91
2023/04/15 01:25:18;;;;;;;3.80;3.50;;;7.50;71.90;;;;;;5081415;28;20214;-87
2023/04/15 01:27:44;;;;;;;4.13;3.40;;;7.60;72.00;;;;;;5065195;28;20164;-88
2023/04/15 01:30:10;;;;;;;4.97;3.70;;;7.70;71.50;;;;;;5091203;28;20209;-88
2023/04/15 01:32:36;;;;;;;7.10;3.73;;;7.70;71.90;;;;;;5083881;28;20266;-90
2023/04/15 01:35:02;;;;;;;5.67;3.83;;;7.80;71.10;;;;;;5084783;28;20205;-90
2023/04/15 01:37:28;;;;;;;5.67;3.30;;;7.80;71.20;;;;;;5102489;28;20236;-92
2023/04/15 01:39:56;;;;;;;5.33;3.57;;;7.80;71.30;;;;;;5088530;28;20199;-88
2023/04/15 01:42:21;;;;;;;4.43;3.60;;;7.70;72.00;;;;;;5101696;28;20209;-89
2023/04/15 01:44:47;;;;;;;5.80;3.83;;;7.40;74.10;;;;;;5101623;28;20203;-89
2023/04/15 01:47:13;;;;;;;5.57;3.80;;;7.20;74.70;;;;;;5101446;28;20167;-88
2023/04/15 01:49:38;;;;;;;4.07;3.20;;;7.30;75.10;;;;;;5100611;28;20194;-88
2023/04/15 01:52:04;;;;;;;4.13;3.73;;;7.30;74.50;;;;;;5100784;28;20218;-92
2023/04/15 01:54:30;;;;;;;4.17;3.73;;;7.20;74.50;;;;;;5083657;28;20695;-88
2023/04/15 01:56:55;;;;;;;3.97;3.60;;;7.20;74.70;;;;;;5102046;28;20244;-88
2023/04/15 01:59:22;;;;;;;4.47;3.97;;;7.30;74.10;;;;;;5102761;28;20191;-87
2023/04/15 02:01:48;;;;;;;4.30;3.90;;;7.30;73.80;;;;;;5102845;28;20179;-88
2023/04/15 02:04:16;;;;;;;5.17;4.00;;;7.30;74.40;;;;;;5103595;28;20194;-88
2023/04/15 02:06:42;;;;;;;6.90;4.47;;;7.30;74.00;;;;;;5102336;28;20171;-87
2023/04/15 02:09:09;;;;;;;4.40;4.00;;;7.30;73.60;;;;;;5104004;28;20218;-88
2023/04/15 02:11:36;;;;;;;4.90;4.50;;;7.20;74.80;;;;;;5101999;28;20649;-88
2023/04/15 02:14:04;;;;;;;4.63;3.93;;;7.10;75.60;;;;;;5101569;28;20179;-89
2023/04/15 02:16:31;;;;;;;4.87;4.33;;;7.10;76.20;;;;;;5101824;28;20179;-92
2023/04/15 02:18:56;;;;;;;4.60;4.20;;;7.00;76.30;;;;;;5101769;28;20271;-89
2023/04/15 02:21:22;;;;;;;6.00;3.90;;;7.00;77.00;;;;;;5090406;28;20229;-89
2023/04/15 02:23:48;;;;;;;4.90;4.30;;;6.80;76.90;;;;;;5094063;22;20747;-87
2023/04/15 02:26:14;;;;;;;4.20;3.70;;;6.50;78.60;;;;;;5063052;28;20252;-86
2023/04/15 02:28:40;;;;;;;4.57;4.17;;;6.60;78.10;;;;;;5074610;28;20247;-86
2023/04/15 02:31:07;;;;;;;5.57;4.17;;;6.60;78.10;;;;;;5062823;28;20343;-86
2023/04/15 02:33:32;;;;;;;6.03;3.87;;;6.70;78.50;;;;;;5064288;28;20338;-85
2023/04/15 02:35:58;;;;;;;4.07;3.67;;;6.70;78.20;;;;;;5076717;28;20365;-87
2023/04/15 02:38:24;;;;;;;4.53;3.83;;;6.80;78.40;;;;;;5070558;28;20180;-87
2023/04/15 02:40:50;;;;;;;4.80;4.03;;;7.00;77.70;;;;;;5055677;28;20173;-87
2023/04/15 02:43:16;;;;;;;4.77;3.97;;;6.90;76.70;;;;;;5055215;28;20230;-86
2023/04/15 02:45:42;;;;;;;5.20;4.10;;;7.00;77.10;;;;;;5054042;28;20205;-86
2023/04/15 02:48:08;;;;;;;4.70;3.43;;;7.00;76.40;;;;;;5057597;28;20184;-85
2023/04/15 02:50:34;;;;;;;4.43;4.00;;;7.00;76.40;;;;;;5056222;28;20184;-87
2023/04/15 02:53:01;;;;;;;5.23;4.13;;;7.00;77.80;;;;;;5057157;28;20211;-87
2023/04/15 02:55:27;;;;;;;5.43;4.30;;;7.00;77.30;;;;;;5043484;28;20279;-85
2023/04/15 02:57:53;;;;;;;4.33;3.93;;;6.90;78.70;;;;;;5040529;28;20249;-86
2023/04/15 03:00:19;;;;;;;4.10;3.70;;;6.80;78.30;;;;;;5057016;28;20279;-86
2023/04/15 03:02:45;;;;;;;4.60;4.00;;;6.80;77.60;;;;;;5039632;28;20173;-85
2023/04/15 03:05:13;;;;;;;5.53;4.13;;;6.80;77.10;;;;;;5056257;28;20215;-85
2023/04/15 03:07:39;;;;;;;5.13;4.63;;;6.80;76.40;;;;;;5057956;28;20400;-87
2023/04/15 03:10:07;;;;;;;4.33;3.97;;;6.70;77.10;;;;;;5060739;28;20172;-86
2023/04/15 03:12:33;;;;;;;6.53;4.27;;;6.70;76.70;;;;;;5074443;28;20178;-86
2023/04/15 03:15:00;;;;;;;3.87;3.57;;;6.70;76.50;;;;;;5073280;28;20196;-85
2023/04/15 03:17:26;;;;;;;4.97;4.20;;;6.70;76.00;;;;;;5073239;28;20179;-85
2023/04/15 03:19:52;;;;;;;4.13;3.73;;;6.70;76.60;;;;;;5056913;28;20699;-86
2023/04/15 03:22:18;;;;;;;5.50;4.53;;;6.60;76.80;;;;;;5059178;28;20184;-86
2023/04/15 03:24:43;;;;;;;7.17;4.60;;;6.60;76.50;;;;;;5057363;28;20645;-85
2023/04/15 03:27:09;;;;;;;5.27;4.77;;;6.50;76.50;;;;;;5067461;28;20183;-85
2023/04/15 03:29:35;;;;;;;4.17;3.87;;;6.50;76.40;;;;;;5071234;28;20182;-86
2023/04/15 03:32:01;;;;;;;5.30;4.20;;;6.50;76.20;;;;;;5056993;28;20202;-84
2023/04/15 03:34:27;;;;;;;4.63;4.23;;;6.50;75.60;;;;;;5056205;28;20227;-85
2023/04/15 03:36:52;;;;;;;5.67;3.90;;;6.40;76.30;;;;;;5054116;28;20231;-85
2023/04/15 03:39:18;;;;;;;4.67;4.20;;;6.40;76.40;;;;;;5064020;28;20183;-85
2023/04/15 03:41:43;;;;;;;3.90;3.60;;;6.30;76.90;;;;;;5055173;28;20248;-86
2023/04/15 03:44:10;;;;;;;5.60;3.70;;;6.30;77.10;;;;;;5072044;28;20267;-85
2023/04/15 03:46:35;;;;;;;4.60;4.20;;;6.30;76.90;;;;;;5055365;28;20179;-86
2023/04/15 03:49:07;;;;;;;4.07;3.70;;;6.20;77.50;;;;;;5075438;28;20261;-86
2023/04/15 03:51:34;;;;;;;6.13;4.30;;;6.20;78.00;;;;;;5074901;28;20877;-86
2023/04/15 03:54:00;;;;;;;4.53;4.13;;;6.20;77.00;;;;;;5059730;28;20458;-85
2023/04/15 03:56:26;;;;;;;4.93;4.43;;;6.20;77.20;;;;;;5055254;28;20218;-85
2023/04/15 03:58:52;;;;;;;4.33;3.93;;;6.20;77.50;;;;;;5056154;28;20176;-85
2023/04/15 04:01:18;;;;;;;5.87;3.67;;;6.20;77.40;;;;;;5054733;28;20176;-88
2023/04/15 04:03:44;;;;;;;5.03;3.77;;;6.10;76.90;;;;;;5037160;28;20179;-85
2023/04/15 04:06:11;;;;;;;7.27;4.10;;;6.10;76.90;;;;;;5055638;28;20227;-83
2023/04/15 04:08:37;;;;;;;5.97;4.10;;;6.00;76.90;;;;;;5074769;28;20175;-89
2023/04/15 04:11:03;;;;;;;7.50;3.97;;;5.90;77.00;;;;;;5075905;28;20670;-85
2023/04/15 04:13:28;;;;;;;5.43;4.10;;;5.80;78.20;;;;;;5065622;28;20187;-86
2023/04/15 04:15:54;;;;;;;4.97;4.20;;;5.70;79.10;;;;;;5054949;28;20204;-86
2023/04/15 04:18:20;;;;;;;5.07;4.17;;;5.80;78.50;;;;;;5053971;28;20186;-87
2023/04/15 04:20:46;;;;;;;5.27;3.70;;;5.90;78.60;;;;;;5056390;28;20184;-86
2023/04/15 04:23:12;;;;;;;5.10;4.40;;;5.90;77.90;;;;;;5053173;28;20250;-86
2023/04/15 04:25:37;;;;;;;5.53;3.83;;;5.90;77.90;;;;;;5035885;28;20269;-87
2023/04/15 04:28:03;;;;;;;4.70;4.20;;;5.90;77.30;;;;;;5054039;28;20227;-87
2023/04/15 04:30:29;;;;;;;4.87;4.13;;;5.90;77.20;;;;;;5066050;28;20447;-86
2023/04/15 04:32:55;;;;;;;3.90;3.50;;;5.90;77.30;;;;;;5057715;28;20177;-86
2023/04/15 04:35:21;;;;;;;4.63;4.20;;;5.90;76.60;;;;;;5034053;28;20211;-85
2023/04/15 04:37:47;;;;;;;5.23;4.27;;;5.80;78.30;;;;;;5052545;28;20168;-85
2023/04/15 04:40:13;;;;;;;4.00;3.60;;;5.80;78.40;;;;;;5053625;28;20183;-85
2023/04/15 04:42:38;;;;;;;6.40;4.30;;;5.90;78.70;;;;;;5053840;28;20189;-87
2023/04/15 04:45:04;;;;;;;5.53;3.97;;;5.90;79.40;;;;;;5053707;28;20588;-86
2023/04/15 04:47:30;;;;;;;4.77;4.37;;;5.80;81.10;;;;;;5054701;28;20183;-86
2023/04/15 04:49:56;;;;;;;4.70;4.03;;;5.80;82.70;;;;;;5068313;28;20282;-86
2023/04/15 04:52:21;;;;;;;4.20;3.80;;;5.70;80.20;;;;;;5074430;28;20176;-86
2023/04/15 04:54:47;;;;;;;5.90;3.70;;;5.60;79.80;;;;;;5045889;28;20205;-87
2023/04/15 04:57:13;;;;;;;4.17;3.80;;;5.40;80.40;;;;;;5054502;28;20266;-85
2023/04/15 04:59:39;;;;;;;5.53;4.07;;;5.50;80.40;;;;;;5064879;28;20179;-86
2023/04/15 05:02:05;;;;;;;3.93;3.63;;;5.50;80.10;;;;;;5067736;28;20179;-86
2023/04/15 05:04:31;;;;;;;5.17;4.70;;;5.50;80.80;;;;;;5065434;28;20204;-85
2023/04/15 05:06:58;;;;;;;4.80;4.30;;;5.50;79.60;;;;;;5061364;28;20164;-86
2023/04/15 05:09:24;;;;;;;4.87;4.20;;;5.60;80.60;;;;;;5065193;28;20222;-86
2023/04/15 05:11:49;;;;;;;4.97;4.00;;;5.60;83.00;;;;;;5055356;28;20188;-86
2023/04/15 05:14:16;;;;;;;4.63;4.23;;;5.70;83.70;;;;;;5068756;28;20211;-86
2023/04/15 05:16:41;;;;;;;16.97;5.47;;;5.70;81.90;;;;;;5060952;28;20187;-86
2023/04/15 05:19:07;;;;;;;12.07;4.70;;;5.70;81.00;;;;;;5065655;28;20866;-87
2023/04/15 05:21:33;;;;;;;10.53;4.50;;;5.70;81.70;;;;;;5050931;28;20913;-86
2023/04/15 05:23:59;;;;;;;6.10;3.80;;;5.80;81.30;;;;;;5068471;28;20255;-87
2023/04/15 05:26:26;;;;;;;4.77;4.20;;;5.90;80.10;;;;;;5050234;28;20611;-84
2023/04/15 05:28:59;;;;;;;6.63;3.83;;;5.90;80.00;;;;;;5059012;28;20219;-86
2023/04/15 05:31:28;;;;;;;5.43;4.07;;;5.90;79.80;;;;;;5063725;28;20174;-86
2023/04/15 05:33:54;;;;;;;5.53;3.67;;;6.00;79.30;;;;;;5065854;28;20207;-86
2023/04/15 05:36:20;;;;;;;5.30;4.50;;;6.00;79.70;;;;;;5066756;28;20168;-85
2023/04/15 05:38:46;;;;;;;5.80;4.70;;;5.90;81.00;;;;;;5063666;28;20184;-85
2023/04/15 05:41:14;;;;;;;6.33;4.90;;;5.80;83.00;;;;;;5065262;28;20176;-86
2023/04/15 05:43:40;;;;;;;5.50;3.97;;;5.70;84.60;;;;;;5070816;28;20211;-87
2023/04/15 05:46:07;;;;;;;6.63;4.17;;;5.70;86.00;;;;;;5067395;28;20208;-85
2023/04/15 05:48:36;;;;;;;7.00;5.00;;;5.70;85.60;;;;;;5053198;28;20233;-85
2023/04/15 05:51:02;;;;;;;4.80;4.30;;;5.80;86.40;;;;;;5070637;28;20800;-85
2023/04/15 05:53:33;;;;;;;4.77;4.13;;;5.80;86.70;;;;;;5068496;28;20256;-85
2023/04/15 05:56:00;;;;;;;4.97;4.20;;;5.90;87.20;;;;;;5063318;28;20219;-86
2023/04/15 05:58:26;;;;;;;4.67;3.97;;;5.90;87.90;;;;;;5066445;28;20188;-86
2023/04/15 06:00:52;;;;;;;5.67;5.07;;;6.00;88.60;;;;;;5063177;28;20256;-88
2023/04/15 06:03:20;;;;;;;4.33;3.77;;;6.10;88.10;;;;;;5062984;28;20311;-86
2023/04/15 06:05:46;;;;;;;52.87;10.70;;;6.20;88.10;;;;;;5042345;28;20722;-86
2023/04/15 06:08:15;;;;;;;11.00;7.87;;;6.40;94.00;;;;;;5060661;28;20180;-87
2023/04/15 06:10:40;;;;;;;6.33;5.43;;;6.60;88.40;;;;;;5064659;28;20529;-87
2023/04/15 06:13:07;;;;;;;8.50;5.20;;;6.60;88.60;;;;;;5065763;28;20392;-88
2023/04/15 06:15:33;;;;;;;12.53;5.07;;;6.60;89.80;;;;;;5063587;28;20703;-87
2023/04/15 06:18:07;;;;;;;10.87;4.90;;;6.60;90.10;;;;;;5068651;28;20183;-87
2023/04/15 06:20:48;;;;;;;8.73;5.23;;;6.70;88.90;;;;;;5063529;28;20184;-87
2023/04/15 06:23:16;;;;;;;8.40;4.90;;;6.80;89.50;;;;;;5056784;28;20298;-88
2023/04/15 06:25:42;;;;;;;5.80;5.03;;;6.90;88.70;;;;;;5055303;28;20212;-87
2023/04/15 06:29:13;;;;;;;5.67;4.70;;;6.90;88.20;;;;;;5041764;28;20227;-88
2023/04/15 06:31:47;;;;;;;5.30;4.80;;;7.10;87.50;;;;;;5057595;28;20184;-88
2023/04/15 06:34:13;;;;;;;5.87;5.27;;;7.20;86.70;;;;;;5056043;28;20216;-86
2023/04/15 06:36:39;;;;;;;5.53;4.43;;;7.20;84.90;;;;;;5055366;28;20161;-87
2023/04/15 06:39:14;;;;;;;5.70;5.07;;;7.30;82.80;;;;;;5059657;28;20207;-86
2023/04/15 06:41:55;;;;;;;;;;;;;;;;;;;;;
2023/04/15 06:44:28;;;;;;;7.80;5.37;;;7.50;83.20;;;;;;5051086;28;20941;-87
2023/04/15 06:47:16;;;;;;;6.53;5.80;;;7.60;84.40;;;;;;5051561;28;20274;-87
2023/04/15 06:49:48;;;;;;;8.03;6.27;;;7.70;82.90;;;;;;5048168;28;20173;-88
2023/04/15 06:52:15;;;;;;;6.03;5.23;;;7.90;83.20;;;;;;5071203;28;20180;-87
2023/04/15 06:54:41;;;;;;;7.17;6.17;;;8.00;82.20;;;;;;5054740;28;20211;-87
2023/04/15 06:57:08;;;;;;;6.60;6.00;;;8.00;82.90;;;;;;5066098;28;20213;-89
2023/04/15 06:59:34;;;;;;;6.53;5.50;;;8.00;82.60;;;;;;5057294;28;20918;-88
2023/04/15 07:02:00;;;;;;;6.50;5.70;;;8.00;83.90;;;;;;5058969;28;20201;-85
2023/04/15 07:04:26;;;;;;;7.13;5.37;;;8.00;83.90;;;;;;5061110;28;20219;-85
2023/04/15 07:06:54;;;;;;;7.37;4.80;;;8.10;85.00;;;;;;5037511;28;20947;-87
2023/04/15 07:09:21;;;;;;;7.87;6.87;;;8.10;86.10;;;;;;5067629;28;20195;-88
2023/04/15 07:11:48;;;;;;;6.33;5.67;;;8.10;85.80;;;;;;5073013;28;20174;-87
2023/04/15 07:14:14;;;;;;;7.70;5.87;;;8.10;85.00;;;;;;5073782;28;20273;-87
2023/04/15 07:16:39;;;;;;;6.83;6.17;;;8.20;85.00;;;;;;5047314;28;20779;-86
2023/04/15 07:19:06;;;;;;;5.80;5.30;;;8.10;87.40;;;;;;5054394;28;20180;-86
2023/04/15 07:21:32;;;;;;;6.70;5.50;;;8.30;86.70;;;;;;5055793;28;20251;-87
2023/04/15 07:23:58;;;;;;;7.57;5.93;;;8.40;85.30;;;;;;5054625;28;20185;-88
2023/04/15 07:26:23;;;;;;;7.70;5.43;;;8.50;84.30;;;;;;5056470;28;20214;-86
2023/04/15 07:28:49;;;;;;;9.63;5.23;;;8.60;84.70;;;;;;5058319;28;20180;-87
2023/04/15 07:31:16;;;;;;;6.93;5.70;;;8.70;84.70;;;;;;5068108;28;20177;-87
2023/04/15 07:33:41;;;;;;;6.80;6.20;;;8.60;85.20;;;;;;5056761;28;20177;-86
2023/04/15 07:36:08;;;;;;;9.10;6.43;;;8.80;83.90;;;;;;5038575;28;20208;-88
2023/04/15 07:38:34;;;;;;;10.50;5.50;;;8.80;84.00;;;;;;5057067;28;20254;-87
2023/04/15 07:40:59;;;;;;;9.47;6.03;;;8.90;84.00;;;;;;5057244;28;20177;-86
2023/04/15 07:43:25;;;;;;;7.00;5.07;;;9.00;83.60;;;;;;5057749;28;20183;-88
2023/04/15 07:45:51;;;;;;;7.50;6.80;;;9.10;83.70;;;;;;5055618;28;20224;-87
2023/04/15 07:48:17;;;;;;;8.00;7.23;;;9.20;83.40;;;;;;5071725;28;20191;-87
2023/04/15 07:50:43;;;;;;;7.33;6.33;;;9.20;83.60;;;;;;5076322;28;20175;-88
2023/04/15 07:53:09;;;;;;;6.40;5.80;;;9.20;84.20;;;;;;5074772;28;20183;-87
2023/04/15 07:55:34;;;;;;;10.43;7.13;;;9.30;84.40;;;;;;5065852;28;20293;-86
2023/04/15 07:58:00;;;;;;;11.07;7.87;;;9.50;83.30;;;;;;5066366;28;20247;-86
2023/04/15 08:00:27;;;;;;;8.57;6.87;;;9.50;81.30;;;;;;5077515;28;20175;-85
2023/04/15 08:02:52;;;;;;;8.07;6.43;;;9.50;80.10;;;;;;5084357;28;20194;-88
2023/04/15 08:05:18;;;;;;;8.73;7.83;;;9.70;77.90;;;;;;5050987;28;20215;-88
2023/04/15 08:07:45;;;;;;;9.80;6.87;;;9.80;76.30;;;;;;5079734;28;20240;-88
2023/04/15 08:10:11;;;;;;;7.07;6.10;;;9.70;76.50;;;;;;5077824;28;20179;-88
2023/04/15 08:12:39;;;;;;;7.60;6.43;;;9.70;77.40;;;;;;5066247;28;20184;-88
2023/04/15 08:15:07;;;;;;;9.07;6.20;;;9.70;77.20;;;;;;5056298;28;20844;-88
2023/04/15 08:17:32;;;;;;;8.70;6.67;;;9.80;77.10;;;;;;5038028;28;20184;-88
2023/04/15 08:19:58;;;;;;;9.67;6.47;;;9.90;76.70;;;;;;5055552;28;20234;-87
2023/04/15 08:22:24;;;;;;;7.07;6.10;;;9.90;76.20;;;;;;5061268;28;20192;-87
2023/04/15 08:24:50;;;;;;;8.10;6.57;;;10.20;75.40;;;;;;5074014;28;20213;-90
2023/04/15 08:27:16;;;;;;;9.63;6.13;;;10.30;75.00;;;;;;5065332;28;20610;-87
2023/04/15 08:29:42;;;;;;;9.60;5.87;;;10.20;74.40;;;;;;5072803;28;20182;-88
2023/04/15 08:32:13;;;;;;;7.63;6.23;;;10.30;75.10;;;;;;5058135;28;20209;-85
2023/04/15 08:34:42;;;;;;;8.27;6.23;;;10.50;75.50;;;;;;5067154;28;20208;-86
2023/04/15 08:37:08;;;;;;;7.33;6.30;;;10.50;75.30;;;;;;5075700;28;20249;-86
2023/04/15 08:39:34;;;;;;;8.97;6.10;;;10.70;74.90;;;;;;5067697;28;20181;-86
2023/04/15 08:42:01;;;;;;;7.83;6.30;;;10.90;73.60;;;;;;5075160;28;20203;-86
2023/04/15 08:44:30;;;;;;;9.07;6.00;;;11.10;71.70;;;;;;5050213;28;20195;-87
2023/04/15 08:46:59;;;;;;;7.83;6.10;;;11.40;69.90;;;;;;5043227;28;20175;-85
2023/04/15 08:49:27;;;;;;;6.90;6.20;;;11.60;70.00;;;;;;5066456;28;20224;-85
2023/04/15 08:51:55;;;;;;;7.40;5.57;;;11.50;72.10;;;;;;5055113;28;20299;-85
2023/04/15 08:54:28;;;;;;;9.20;6.17;;;11.50;70.20;;;;;;5051970;28;20210;-87
2023/04/15 08:56:57;;;;;;;9.90;5.57;;;11.80;68.20;;;;;;5037517;28;20187;-86
2023/04/15 08:59:34;;;;;;;6.60;5.93;;;11.80;67.40;;;;;;5047526;28;20248;-86
2023/04/15 09:02:04;;;;;;;7.40;5.93;;;12.00;68.00;;;;;;5045691;28;20202;-88
2023/04/15 09:04:30;;;;;;;10.50;6.43;;;12.10;68.30;;;;;;5068140;28;20206;-88
2023/04/15 09:07:01;;;;;;;7.87;5.67;;;12.30;66.50;;;;;;5040324;28;20188;-86
2023/04/15 09:09:30;;;;;;;7.90;6.10;;;12.30;66.00;;;;;;5063410;28;20212;-86
2023/04/15 09:11:58;;;;;;;7.50;5.37;;;12.20;66.10;;;;;;5049814;28;20175;-86
2023/04/15 09:14:27;;;;;;;8.37;6.30;;;12.00;66.40;;;;;;5049614;28;20217;-85
2023/04/15 09:17:28;;;;;;;8.83;5.87;;;11.80;66.30;;;;;;5066369;28;20580;-88
2023/04/15 09:20:14;;;;;;;7.03;5.63;;;11.80;64.30;;;;;;5045848;28;20178;-84
2023/04/15 09:22:41;;;;;;;7.73;5.60;;;12.20;65.70;;;;;;5052278;28;20606;-86
2023/04/15 09:25:31;;;;;;;5.43;4.93;;;12.60;62.80;;;;;;5050788;28;20303;-87
2023/04/15 09:27:59;;;;;;;6.43;5.33;;;12.80;62.00;;;;;;5067612;28;20172;-87
2023/04/15 09:30:27;;;;;;;6.37;5.17;;;12.80;61.40;;;;;;5065668;28;20177;-86
2023/04/15 09:32:55;;;;;;;5.63;5.13;;;13.00;61.10;;;;;;5062502;28;20177;-86
2023/04/15 09:35:22;;;;;;;8.33;5.17;;;13.10;60.40;;;;;;5039909;28;20221;-84
2023/04/15 09:38:00;;;;;;;7.50;5.50;;;13.00;60.30;;;;;;5070507;28;20276;-88
2023/04/15 09:40:50;;;;;;;5.83;5.23;;;13.30;59.90;;;;;;5045454;28;20181;-86
2023/04/15 09:43:51;;;;;;;7.87;5.10;;;13.60;57.90;;;;;;5063759;28;20261;-86
2023/04/15 09:46:17;;;;;;;7.20;5.10;;;13.70;57.70;;;;;;5021095;28;20314;-85
2023/04/15 09:48:42;;;;;;;7.60;5.20;;;13.90;57.80;;;;;;5064669;28;20279;-87
2023/04/15 09:51:08;;;;;;;5.83;5.33;;;14.10;56.90;;;;;;5073353;28;20176;-86
2023/04/15 09:53:40;;;;;;;7.10;5.33;;;14.20;57.40;;;;;;5037942;28;20238;-86
2023/04/15 09:56:12;;;;;;;6.20;4.97;;;14.30;56.90;;;;;;5064748;28;20582;-87
2023/04/15 09:58:42;;;;;;;6.20;5.60;;;13.90;57.50;;;;;;5049844;28;20310;-86
2023/04/15 10:01:13;;;;;;;7.10;5.50;;;13.80;58.20;;;;;;5065366;28;20183;-85
2023/04/15 10:03:50;;;;;;;7.93;5.50;;;13.90;57.10;;;;;;5047037;28;20186;-89
2023/04/15 10:06:34;;;;;;;6.57;5.27;;;14.10;58.40;;;;;;5052073;28;20206;-87
2023/04/15 10:09:14;;;;;;;11.20;6.77;;;13.70;58.40;;;;;;5063811;28;20181;-86
2023/04/15 10:11:46;;;;;;;7.80;6.17;;;13.70;62.10;;;;;;5058559;28;20449;-87
2023/04/15 10:14:21;;;;;;;7.27;6.67;;;13.90;57.20;;;;;;5076098;28;20163;-86
2023/04/15 10:16:55;;;;;;;7.60;6.80;;;14.20;53.80;;;;;;5078221;28;20183;-85
2023/04/15 10:19:29;;;;;;;9.60;7.40;;;14.30;54.70;;;;;;5078812;28;20181;-87
2023/04/15 10:22:15;;;;;;;8.40;7.23;;;14.50;51.80;;;;;;5058988;28;20218;-87
2023/04/15 10:25:03;;;;;;;11.90;8.73;;;14.50;53.10;;;;;;5058067;28;20238;-85
2023/04/15 10:27:41;;;;;;;8.87;7.93;;;14.50;53.20;;;;;;5059122;28;20181;-85
2023/04/15 10:30:36;;;;;;;9.30;7.37;;;14.70;52.30;;;;;;5062558;28;20291;-87
2023/04/15 10:33:20;;;;;;;7.80;7.10;;;14.80;52.10;;;;;;5072635;28;20212;-89
2023/04/15 10:35:56;;;;;;;8.30;7.50;;;14.90;50.60;;;;;;5060043;28;20215;-88
2023/04/15 10:38:55;;;;;;;8.60;7.70;;;15.00;50.60;;;;;;5060293;28;20194;-86
2023/04/15 10:41:32;;;;;;;12.20;7.50;;;15.00;50.90;;;;;;5058818;28;20192;-85
2023/04/15 10:44:07;;;;;;;8.30;7.23;;;15.00;52.10;;;;;;5060637;28;20180;-87
2023/04/15 10:46:46;;;;;;;8.60;6.83;;;15.30;49.90;;;;;;5073114;28;20227;-88
2023/04/15 10:49:29;;;;;;;8.57;7.00;;;15.50;48.00;;;;;;5066748;28;20170;-86
2023/04/15 10:51:58;;;;;;;7.60;7.00;;;15.70;48.30;;;;;;5059025;28;20396;-86
2023/04/15 10:54:38;;;;;;;10.00;7.33;;;15.80;48.10;;;;;;5060907;28;20207;-85
2023/04/15 10:57:15;;;;;;;7.67;6.87;;;15.90;46.70;;;;;;5039402;28;20213;-87
2023/04/15 11:00:18;;;;;;;;;;;;;;;;;;;;;
2023/04/15 11:03:05;;;;;;;9.90;6.17;;;16.10;47.30;;;;;;5058156;28;20277;-86
2023/04/15 11:05:53;;;;;;;6.73;6.13;;;16.20;45.30;;;;;;5041360;28;20510;-86
2023/04/15 11:08:42;;;;;;;8.90;7.00;;;16.30;45.10;;;;;;5041553;28;20180;-88
2023/04/15 11:11:08;;;;;;;7.27;6.03;;;16.60;45.00;;;;;;5041332;28;20188;-86
2023/04/15 11:14:03;;;;;;;6.90;5.27;;;16.50;43.20;;;;;;5039152;28;20187;-88
2023/04/15 11:16:44;;;;;;;7.00;6.40;;;16.60;44.40;;;;;;5054796;28;20255;-86
2023/04/15 11:19:18;;;;;;;8.00;5.20;;;16.60;43.00;;;;;;5038247;28;20223;-86
2023/04/15 11:21:44;;;;;;;8.80;5.87;;;16.50;42.60;;;;;;5056534;28;20650;-85
2023/04/15 11:24:43;;;;;;;6.33;5.00;;;16.60;43.10;;;;;;5061734;28;20213;-87
2023/04/15 11:27:21;;;;;;;5.83;5.27;;;16.70;42.10;;;;;;5057882;28;20296;-86
2023/04/15 11:30:07;;;;;;;6.80;5.23;;;17.20;41.10;;;;;;5036872;28;20211;-86
2023/04/15 11:32:39;;;;;;;5.47;4.97;;;17.30;42.20;;;;;;5038088;28;20260;-87
2023/04/15 11:35:05;;;;;;;7.90;5.40;;;17.50;38.10;;;;;;5038229;28;20288;-88
2023/04/15 11:37:31;;;;;;;8.03;5.40;;;17.40;38.10;;;;;;5039792;28;20186;-86
2023/04/15 11:40:17;;;;;;;7.97;5.27;;;17.30;38.90;;;;;;5058086;28;20177;-85
2023/04/15 11:42:43;;;;;;;5.90;4.40;;;17.40;38.00;;;;;;5054802;28;20545;-87
2023/04/15 11:45:18;;;;;;;4.97;4.47;;;16.90;39.50;;;;;;5045466;28;20236;-86
2023/04/15 11:48:00;;;;;;;5.37;4.40;;;17.10;37.60;;;;;;5058642;28;20171;-87
2023/04/15 11:50:35;;;;;;;6.30;4.20;;;17.20;38.90;;;;;;5058514;28;20181;-86
2023/04/15 11:53:26;;;;;;;5.03;4.07;;;17.40;36.20;;;;;;5037284;28;20585;-86
2023/04/15 11:55:52;;;;;;;8.33;4.30;;;17.60;35.40;;;;;;5036877;28;20204;-84
2023/04/15 11:58:25;;;;;;;9.77;4.23;;;17.70;35.80;;;;;;5038814;28;20180;-86
2023/04/15 12:01:08;;;;;;;5.27;3.67;;;17.80;34.90;;;;;;5058053;28;20182;-86
2023/04/15 12:03:46;;;;;;;4.23;3.60;;;17.70;34.40;;;;;;5058232;28;20168;-90
2023/04/15 12:06:33;;;;;;;5.43;4.00;;;17.50;35.30;;;;;;5056573;28;20220;-87
2023/04/15 12:09:12;;;;;;;5.40;3.77;;;17.50;34.90;;;;;;5056946;28;20249;-88
2023/04/15 12:11:55;;;;;;;;;;;;;;;;;;;;;
2023/04/15 12:14:32;;;;;;;5.30;3.57;;;17.90;34.30;;;;;;5055865;28;20270;-85
2023/04/15 12:17:27;;;;;;;4.57;4.20;;;18.10;33.20;;;;;;5055040;28;20176;-86
2023/04/15 12:19:56;;;;;;;3.77;3.47;;;18.00;33.50;;;;;;5050113;28;20193;-86
2023/04/15 12:22:32;;;;;;;4.57;4.17;;;18.20;34.00;;;;;;5039793;28;20185;-87
2023/04/15 12:28:24;;;;;;;6.30;4.80;;;18.50;31.00;;;;;;5055832;28;20200;-86
2023/04/15 12:30:55;;;;;;;6.67;4.60;;;18.70;30.10;;;;;;5057058;28;20183;-86
2023/04/15 12:33:40;;;;;;;6.67;4.97;;;19.10;29.70;;;;;;5058049;28;20196;-86
2023/04/15 12:36:19;;;;;;;7.23;5.30;;;19.40;29.30;;;;;;5075710;28;20202;-86
2023/04/15 12:39:11;;;;;;;7.10;5.80;;;19.10;29.60;;;;;;5068827;28;20186;-87
2023/04/15 12:41:40;;;;;;;5.87;4.87;;;18.90;30.10;;;;;;5052479;28;20189;-86
2023/04/15 12:44:14;;;;;;;5.40;5.00;;;19.10;29.60;;;;;;5035533;28;20239;-87
2023/04/15 12:46:43;;;;;;;5.50;5.00;;;19.70;29.30;;;;;;5049712;28;20226;-86
2023/04/15 12:49:19;;;;;;;7.15;4.88;;;19.70;27.50;;;;;;5067561;28;20180;-89
2023/04/15 12:51:59;;;;;;;6.60;5.25;;;19.90;27.40;;;;;;5054688;28;20548;-85
2023/04/15 12:55:00;;;;;;;6.68;5.95;;;20.00;27.40;;;;;;5054237;28;20225;-86
2023/04/15 12:57:29;;;;;;;7.35;6.00;;;19.90;28.00;;;;;;5054423;28;20556;-88
2023/04/15 13:00:31;;;;;;;6.78;6.20;;;20.30;28.30;;;;;;5036883;28;20263;-87
2023/04/15 13:03:11;;;;;;;6.40;5.90;;;19.90;29.50;;;;;;5040150;28;20187;-89
2023/04/15 13:05:43;;;;;;;7.15;6.35;;;19.60;29.40;;;;;;5051920;28;20218;-86
2023/04/15 13:08:09;;;;;;;7.10;6.40;;;19.40;30.50;;;;;;5035333;28;20183;-86
2023/04/15 13:10:37;;;;;;;6.63;5.93;;;19.10;30.10;;;;;;5033474;28;20206;-87
2023/04/15 13:13:05;;;;;;;6.63;6.13;;;19.20;31.70;;;;;;5033047;28;20180;-88
2023/04/15 13:15:31;;;;;;;5.93;5.43;;;19.10;30.80;;;;;;5054952;28;20394;-88